Share

Courtland, MS (38620)

Enid, MS (KMSOAKLA2) Elev 223 ft | 34.15 °N, 89.92 °W | Change Station

Current weather conditions updated 5 seconds ago

Clear
Clear
37.6 °F
Feels Like 38 °F
N
0.0
Wind Variable Wind from West
Sunrise 6:26 AM
Sunset 7:33 PM
Moon Waning Gibbous

Today is forecast to be nearly the same temperature as yesterday.

Pressure 30.26 in
Visibility 10.0 miles
Clouds Clear
Windchill 38 °F
Dew Point 35 °F
Humidity 91%
Rainfall 0.00 in
Snow Depth Not available.
UV 0 out of 16
Pollen 9.70 out of 12
Air Quality Not available.
Flu Activity No Activity
METAR KUOX 171135Z AUTO 15003KT 10SM CLR 07/02 A3026 RMK AO2

More Conditions Fewer Conditions

Pressure 30.26 in
Visibility 10.0 miles
Clouds Clear
Windchill 38 °F
Dew Point 35 °F
Humidity 91%
Rainfall 0.00 in
Snow Depth Not available.
UV 0 out of 16
Pollen 9.70 out of 12
Air Quality Not available.
Flu Activity No Activity
METAR KUOX 171135Z AUTO 15003KT 10SM CLR 07/02 A3026 RMK AO2

More Conditions Fewer Conditions

10-Day Forecast

Almanac

Astronomy

Apr. 17, 2014 Rise Set
Actual Time 6:26 AM CDT 7:33 PM CDT
Civil Twilight 6:01 AM CDT 7:59 PM CDT
Nautical Twilight 5:30 AM CDT 8:30 PM CDT
Astronomical Twilight 4:58 AM CDT 9:02 PM CDT
Moon 10:14 PM CDT 8:03 AM CDT
Length of Visible Light 13h 58m
Length of Day
13h 06m
Tomorrow will be 1m 59s longer.
Waning Gibbous, 95% of the Moon is Illuminated
Today
Waning Gibbous
Apr 22
Last Quarter
Apr 29
New
May 6
First Quarter
May 14
Full

Today's Extremes

State Highs State Lows

Community

  • sunset from izmir, narl─▒dere
    sunset from izmir, narl─▒dere
  • Sunset over the Bay
    Sunset over the Bay
  • Sunrise Serenade
    Sunrise Serenade
  • symphony in blue....
    symphony in blue....
  • Dawn Surprise
    Dawn Surprise

WunderPhotos

Upload Photos

1,701,919 photos uploaded!

Nearby

Snow Depth

Station Depth Elevation
No new snow has been reported.

Coastal Water Temperatures

Place Temperature
No Stations Reporting

Earthquake Activity

City Distance Mag. Time & Date
No recent earthquake activity has been reported nearby.
Minimum magnitude displayed is 2.5.

Nearby Weather Stations

Station Location Temp. Windchill Dew Point Humidity Wind Precip. Elev Updated Type
Enid, MS, Oakland, MS 37.6 °F 38 °F 35 °F 91% West  at  0.0 mph - / hr 223 ft 6:53 AM CDT Normal

Show More Stations Show Fewer Stations

What do you think?

We're not finished. Please let us know what you like, what you don't like, and what you are still missing.